sensor_id;sensor_type;location;lat;lon;timestamp;P1;durP1;ratioP1;P2;durP2;ratioP2
75311;SDS011;63906;55.686;37.532;2023-06-14T00:02:13;3.00;;;1.65;;
75311;SDS011;63906;55.686;37.532;2023-06-14T00:07:14;2.00;;;1.20;;
75311;SDS011;63906;55.686;37.532;2023-06-14T00:17:17;2.40;;;1.50;;
75311;SDS011;63906;55.686;37.532;2023-06-14T00:22:17;2.55;;;1.58;;
75311;SDS011;63906;55.686;37.532;2023-06-14T00:27:18;3.88;;;2.22;;
75311;SDS011;63906;55.686;37.532;2023-06-14T00:32:18;2.65;;;1.70;;
75311;SDS011;63906;55.686;37.532;2023-06-14T00:37:19;3.65;;;2.35;;
75311;SDS011;63906;55.686;37.532;2023-06-14T00:42:26;2.78;;;1.60;;
75311;SDS011;63906;55.686;37.532;2023-06-14T00:47:27;2.22;;;1.30;;
75311;SDS011;63906;55.686;37.532;2023-06-14T00:52:27;4.07;;;1.70;;
75311;SDS011;63906;55.686;37.532;2023-06-14T00:57:29;3.95;;;1.70;;
75311;SDS011;63906;55.686;37.532;2023-06-14T01:02:30;2.45;;;1.50;;
75311;SDS011;63906;55.686;37.532;2023-06-14T01:13:03;3.63;;;1.60;;
75311;SDS011;63906;55.686;37.532;2023-06-14T01:18:09;2.25;;;1.50;;
75311;SDS011;63906;55.686;37.532;2023-06-14T01:23:17;3.25;;;1.92;;
75311;SDS011;63906;55.686;37.532;2023-06-14T01:28:19;4.75;;;2.67;;
75311;SDS011;63906;55.686;37.532;2023-06-14T01:33:22;2.60;;;1.92;;
75311;SDS011;63906;55.686;37.532;2023-06-14T01:38:26;2.38;;;1.42;;
75311;SDS011;63906;55.686;37.532;2023-06-14T01:43:28;2.67;;;1.90;;
75311;SDS011;63906;55.686;37.532;2023-06-14T01:48:31;3.65;;;1.95;;
75311;SDS011;63906;55.686;37.532;2023-06-14T01:53:32;1.90;;;1.38;;
75311;SDS011;63906;55.686;37.532;2023-06-14T01:58:32;2.25;;;1.70;;
75311;SDS011;63906;55.686;37.532;2023-06-14T02:03:33;3.05;;;1.70;;
75311;SDS011;63906;55.686;37.532;2023-06-14T02:08:34;2.58;;;1.30;;
75311;SDS011;63906;55.686;37.532;2023-06-14T02:13:34;2.95;;;1.80;;
75311;SDS011;63906;55.686;37.532;2023-06-14T02:18:35;3.47;;;1.73;;
75311;SDS011;63906;55.686;37.532;2023-06-14T02:23:36;1.92;;;1.60;;
75311;SDS011;63906;55.686;37.532;2023-06-14T02:28:37;2.10;;;1.35;;
75311;SDS011;63906;55.686;37.532;2023-06-14T02:33:37;1.73;;;1.30;;
75311;SDS011;63906;55.686;37.532;2023-06-14T02:38:38;1.88;;;1.10;;
75311;SDS011;63906;55.686;37.532;2023-06-14T02:43:39;2.92;;;1.08;;
75311;SDS011;63906;55.686;37.532;2023-06-14T02:48:39;1.95;;;1.10;;
75311;SDS011;63906;55.686;37.532;2023-06-14T02:53:40;1.45;;;0.90;;
75311;SDS011;63906;55.686;37.532;2023-06-14T02:58:40;1.88;;;1.40;;
75311;SDS011;63906;55.686;37.532;2023-06-14T03:03:41;1.35;;;0.88;;
75311;SDS011;63906;55.686;37.532;2023-06-14T03:08:41;1.23;;;0.75;;
75311;SDS011;63906;55.686;37.532;2023-06-14T03:13:42;0.90;;;0.73;;
75311;SDS011;63906;55.686;37.532;2023-06-14T03:18:43;0.80;;;0.52;;
75311;SDS011;63906;55.686;37.532;2023-06-14T03:23:44;0.60;;;0.47;;
75311;SDS011;63906;55.686;37.532;2023-06-14T03:28:45;1.00;;;0.70;;
75311;SDS011;63906;55.686;37.532;2023-06-14T03:33:46;1.20;;;0.70;;
75311;SDS011;63906;55.686;37.532;2023-06-14T03:38:46;1.25;;;0.75;;
75311;SDS011;63906;55.686;37.532;2023-06-14T03:43:47;1.85;;;1.20;;
75311;SDS011;63906;55.686;37.532;2023-06-14T03:48:47;1.60;;;0.95;;
75311;SDS011;63906;55.686;37.532;2023-06-14T03:53:48;1.98;;;1.00;;
75311;SDS011;63906;55.686;37.532;2023-06-14T03:58:48;2.17;;;1.30;;
75311;SDS011;63906;55.686;37.532;2023-06-14T04:03:49;1.80;;;1.10;;
75311;SDS011;63906;55.686;37.532;2023-06-14T04:08:50;1.98;;;1.60;;
75311;SDS011;63906;55.686;37.532;2023-06-14T04:13:51;2.35;;;1.48;;
75311;SDS011;63906;55.686;37.532;2023-06-14T04:18:54;1.98;;;1.58;;
75311;SDS011;63906;55.686;37.532;2023-06-14T04:28:56;2.40;;;1.40;;
75311;SDS011;63906;55.686;37.532;2023-06-14T04:34:01;2.47;;;1.45;;
75311;SDS011;63906;55.686;37.532;2023-06-14T04:39:05;4.18;;;2.30;;
75311;SDS011;63906;55.686;37.532;2023-06-14T04:44:06;3.28;;;2.28;;
75311;SDS011;63906;55.686;37.532;2023-06-14T04:49:07;3.22;;;2.60;;
75311;SDS011;63906;55.686;37.532;2023-06-14T04:54:11;4.40;;;2.50;;
75311;SDS011;63906;55.686;37.532;2023-06-14T04:59:15;2.80;;;2.00;;
75311;SDS011;63906;55.686;37.532;2023-06-14T05:04:18;3.38;;;2.30;;
75311;SDS011;63906;55.686;37.532;2023-06-14T05:09:19;5.63;;;2.60;;
75311;SDS011;63906;55.686;37.532;2023-06-14T05:14:21;3.92;;;2.40;;
75311;SDS011;63906;55.686;37.532;2023-06-14T05:19:22;3.60;;;2.22;;
75311;SDS011;63906;55.686;37.532;2023-06-14T05:24:23;3.30;;;2.35;;
75311;SDS011;63906;55.686;37.532;2023-06-14T05:29:23;3.13;;;2.20;;
75311;SDS011;63906;55.686;37.532;2023-06-14T05:34:24;3.70;;;2.67;;
75311;SDS011;63906;55.686;37.532;2023-06-14T05:39:25;4.97;;;2.40;;
75311;SDS011;63906;55.686;37.532;2023-06-14T05:44:25;3.83;;;2.10;;
75311;SDS011;63906;55.686;37.532;2023-06-14T05:49:26;4.25;;;2.63;;
75311;SDS011;63906;55.686;37.532;2023-06-14T05:54:26;3.40;;;2.35;;
75311;SDS011;63906;55.686;37.532;2023-06-14T05:59:27;2.67;;;1.60;;
75311;SDS011;63906;55.686;37.532;2023-06-14T06:09:29;3.00;;;1.85;;
75311;SDS011;63906;55.686;37.532;2023-06-14T06:14:30;3.15;;;1.88;;
75311;SDS011;63906;55.686;37.532;2023-06-14T06:19:31;3.13;;;1.90;;
75311;SDS011;63906;55.686;37.532;2023-06-14T06:24:31;3.45;;;1.40;;
75311;SDS011;63906;55.686;37.532;2023-06-14T06:29:32;2.20;;;1.30;;
75311;SDS011;63906;55.686;37.532;2023-06-14T06:34:32;2.70;;;1.52;;
75311;SDS011;63906;55.686;37.532;2023-06-14T06:39:36;1.88;;;1.40;;
75311;SDS011;63906;55.686;37.532;2023-06-14T06:44:37;3.33;;;1.55;;
75311;SDS011;63906;55.686;37.532;2023-06-14T06:49:38;3.70;;;1.63;;
75311;SDS011;63906;55.686;37.532;2023-06-14T06:54:39;2.55;;;1.70;;
75311;SDS011;63906;55.686;37.532;2023-06-14T06:59:40;4.22;;;1.80;;
75311;SDS011;63906;55.686;37.532;2023-06-14T07:04:40;1.92;;;1.55;;
75311;SDS011;63906;55.686;37.532;2023-06-14T07:09:41;3.20;;;1.30;;
75311;SDS011;63906;55.686;37.532;2023-06-14T07:14:42;2.65;;;1.40;;
75311;SDS011;63906;55.686;37.532;2023-06-14T07:19:42;3.08;;;1.40;;
75311;SDS011;63906;55.686;37.532;2023-06-14T07:24:43;4.30;;;3.13;;
75311;SDS011;63906;55.686;37.532;2023-06-14T07:29:44;3.60;;;1.98;;
75311;SDS011;63906;55.686;37.532;2023-06-14T07:34:44;3.92;;;1.60;;
75311;SDS011;63906;55.686;37.532;2023-06-14T07:39:45;2.80;;;1.60;;
75311;SDS011;63906;55.686;37.532;2023-06-14T07:44:45;2.78;;;1.42;;
75311;SDS011;63906;55.686;37.532;2023-06-14T07:49:46;2.72;;;1.35;;
75311;SDS011;63906;55.686;37.532;2023-06-14T07:54:46;3.67;;;1.90;;
75311;SDS011;63906;55.686;37.532;2023-06-14T07:59:47;3.25;;;1.88;;
75311;SDS011;63906;55.686;37.532;2023-06-14T08:04:47;2.45;;;1.50;;
75311;SDS011;63906;55.686;37.532;2023-06-14T08:09:48;1.70;;;1.33;;
75311;SDS011;63906;55.686;37.532;2023-06-14T08:14:52;4.15;;;1.48;;
75311;SDS011;63906;55.686;37.532;2023-06-14T08:19:52;3.08;;;1.80;;
75311;SDS011;63906;55.686;37.532;2023-06-14T08:24:57;3.08;;;1.98;;
75311;SDS011;63906;55.686;37.532;2023-06-14T08:29:57;1.60;;;1.30;;
75311;SDS011;63906;55.686;37.532;2023-06-14T08:34:58;4.40;;;1.80;;
75311;SDS011;63906;55.686;37.532;2023-06-14T08:39:58;3.95;;;2.15;;
75311;SDS011;63906;55.686;37.532;2023-06-14T08:44:59;2.95;;;1.75;;
75311;SDS011;63906;55.686;37.532;2023-06-14T08:49:59;3.38;;;1.58;;
75311;SDS011;63906;55.686;37.532;2023-06-14T08:55:00;3.05;;;1.50;;
75311;SDS011;63906;55.686;37.532;2023-06-14T09:00:03;5.97;;;2.30;;
75311;SDS011;63906;55.686;37.532;2023-06-14T09:05:12;4.80;;;2.20;;
75311;SDS011;63906;55.686;37.532;2023-06-14T09:15:15;5.45;;;2.15;;
75311;SDS011;63906;55.686;37.532;2023-06-14T09:20:16;2.47;;;1.67;;
75311;SDS011;63906;55.686;37.532;2023-06-14T09:25:20;3.50;;;2.40;;
75311;SDS011;63906;55.686;37.532;2023-06-14T09:30:21;3.47;;;1.73;;
75311;SDS011;63906;55.686;37.532;2023-06-14T09:35:22;2.40;;;1.50;;
75311;SDS011;63906;55.686;37.532;2023-06-14T09:40:22;3.95;;;1.70;;
75311;SDS011;63906;55.686;37.532;2023-06-14T09:50:24;2.58;;;1.67;;
75311;SDS011;63906;55.686;37.532;2023-06-14T09:55:25;4.03;;;1.80;;
75311;SDS011;63906;55.686;37.532;2023-06-14T10:00:31;3.90;;;2.25;;
75311;SDS011;63906;55.686;37.532;2023-06-14T10:05:36;3.55;;;2.15;;
75311;SDS011;63906;55.686;37.532;2023-06-14T10:10:40;3.65;;;2.42;;
75311;SDS011;63906;55.686;37.532;2023-06-14T10:31:30;2.60;;;1.75;;
75311;SDS011;63906;55.686;37.532;2023-06-14T10:36:43;2.35;;;1.90;;
75311;SDS011;63906;55.686;37.532;2023-06-14T10:41:52;3.05;;;1.60;;
75311;SDS011;63906;55.686;37.532;2023-06-14T10:46:53;3.53;;;1.70;;
75311;SDS011;63906;55.686;37.532;2023-06-14T10:51:58;2.42;;;1.75;;
75311;SDS011;63906;55.686;37.532;2023-06-14T10:56:58;1.88;;;1.67;;
75311;SDS011;63906;55.686;37.532;2023-06-14T11:07:20;2.13;;;1.90;;
75311;SDS011;63906;55.686;37.532;2023-06-14T11:12:28;1.80;;;1.70;;
75311;SDS011;63906;55.686;37.532;2023-06-14T11:17:33;2.80;;;1.58;;
75311;SDS011;63906;55.686;37.532;2023-06-14T11:22:41;2.42;;;1.63;;
75311;SDS011;63906;55.686;37.532;2023-06-14T11:27:42;2.72;;;1.80;;
75311;SDS011;63906;55.686;37.532;2023-06-14T11:32:47;2.53;;;1.80;;
75311;SDS011;63906;55.686;37.532;2023-06-14T11:37:48;2.72;;;1.85;;
75311;SDS011;63906;55.686;37.532;2023-06-14T11:42:49;1.70;;;1.60;;
75311;SDS011;63906;55.686;37.532;2023-06-14T11:47:49;1.65;;;1.20;;
75311;SDS011;63906;55.686;37.532;2023-06-14T11:52:57;2.30;;;1.60;;
75311;SDS011;63906;55.686;37.532;2023-06-14T11:58:07;2.05;;;1.60;;
75311;SDS011;63906;55.686;37.532;2023-06-14T12:03:08;1.73;;;1.58;;
75311;SDS011;63906;55.686;37.532;2023-06-14T12:08:09;1.98;;;1.77;;
75311;SDS011;63906;55.686;37.532;2023-06-14T12:13:16;2.67;;;1.75;;
75311;SDS011;63906;55.686;37.532;2023-06-14T12:18:17;3.85;;;1.90;;
75311;SDS011;63906;55.686;37.532;2023-06-14T12:23:18;1.42;;;1.23;;
75311;SDS011;63906;55.686;37.532;2023-06-14T12:28:18;3.35;;;1.70;;
75311;SDS011;63906;55.686;37.532;2023-06-14T12:33:19;2.17;;;1.58;;
75311;SDS011;63906;55.686;37.532;2023-06-14T12:38:20;3.25;;;1.60;;
75311;SDS011;63906;55.686;37.532;2023-06-14T12:43:23;2.17;;;1.92;;
75311;SDS011;63906;55.686;37.532;2023-06-14T12:48:24;1.90;;;1.70;;
75311;SDS011;63906;55.686;37.532;2023-06-14T12:53:24;2.78;;;2.20;;
75311;SDS011;63906;55.686;37.532;2023-06-14T12:58:25;1.70;;;1.60;;
75311;SDS011;63906;55.686;37.532;2023-06-14T13:03:25;1.75;;;1.58;;
75311;SDS011;63906;55.686;37.532;2023-06-14T13:08:26;2.22;;;1.60;;
75311;SDS011;63906;55.686;37.532;2023-06-14T13:13:27;1.92;;;1.50;;
75311;SDS011;63906;55.686;37.532;2023-06-14T13:18:28;2.63;;;1.30;;
75311;SDS011;63906;55.686;37.532;2023-06-14T13:23:28;1.92;;;1.42;;
75311;SDS011;63906;55.686;37.532;2023-06-14T13:28:29;2.17;;;1.70;;
75311;SDS011;63906;55.686;37.532;2023-06-14T13:39:19;2.70;;;1.80;;
75311;SDS011;63906;55.686;37.532;2023-06-14T13:44:19;2.45;;;1.63;;
75311;SDS011;63906;55.686;37.532;2023-06-14T13:49:21;1.50;;;1.40;;
75311;SDS011;63906;55.686;37.532;2023-06-14T13:54:21;1.77;;;1.60;;
75311;SDS011;63906;55.686;37.532;2023-06-14T13:59:22;1.63;;;1.52;;
75311;SDS011;63906;55.686;37.532;2023-06-14T14:04:23;2.33;;;1.67;;
75311;SDS011;63906;55.686;37.532;2023-06-14T14:09:23;2.63;;;1.90;;
75311;SDS011;63906;55.686;37.532;2023-06-14T14:14:24;3.85;;;1.60;;
75311;SDS011;63906;55.686;37.532;2023-06-14T14:19:25;2.03;;;1.38;;
75311;SDS011;63906;55.686;37.532;2023-06-14T14:24:26;2.33;;;1.75;;
75311;SDS011;63906;55.686;37.532;2023-06-14T14:29:26;2.75;;;1.90;;
75311;SDS011;63906;55.686;37.532;2023-06-14T14:34:29;2.80;;;1.77;;
75311;SDS011;63906;55.686;37.532;2023-06-14T14:39:29;2.45;;;1.60;;
75311;SDS011;63906;55.686;37.532;2023-06-14T14:49:31;3.23;;;2.00;;
75311;SDS011;63906;55.686;37.532;2023-06-14T14:59:32;3.45;;;1.60;;
75311;SDS011;63906;55.686;37.532;2023-06-14T15:04:33;2.10;;;1.58;;
75311;SDS011;63906;55.686;37.532;2023-06-14T15:09:39;3.90;;;1.88;;
75311;SDS011;63906;55.686;37.532;2023-06-14T15:14:41;3.67;;;1.70;;
75311;SDS011;63906;55.686;37.532;2023-06-14T15:19:41;2.33;;;1.60;;
75311;SDS011;63906;55.686;37.532;2023-06-14T15:24:42;2.78;;;1.33;;
75311;SDS011;63906;55.686;37.532;2023-06-14T15:29:45;3.00;;;2.25;;
75311;SDS011;63906;55.686;37.532;2023-06-14T15:39:47;2.72;;;1.65;;
75311;SDS011;63906;55.686;37.532;2023-06-14T15:44:48;3.75;;;2.00;;
75311;SDS011;63906;55.686;37.532;2023-06-14T15:49:48;3.42;;;1.83;;
75311;SDS011;63906;55.686;37.532;2023-06-14T15:54:49;3.40;;;1.70;;
75311;SDS011;63906;55.686;37.532;2023-06-14T15:59:49;2.00;;;1.30;;
75311;SDS011;63906;55.686;37.532;2023-06-14T16:04:50;2.33;;;1.70;;
75311;SDS011;63906;55.686;37.532;2023-06-14T16:09:50;2.95;;;1.88;;
75311;SDS011;63906;55.686;37.532;2023-06-14T16:14:51;1.95;;;1.35;;
75311;SDS011;63906;55.686;37.532;2023-06-14T16:19:54;1.90;;;1.02;;
75311;SDS011;63906;55.686;37.532;2023-06-14T16:24:55;2.85;;;1.30;;
75311;SDS011;63906;55.686;37.532;2023-06-14T16:29:55;1.48;;;1.00;;
75311;SDS011;63906;55.686;37.532;2023-06-14T16:34:56;2.55;;;1.55;;
75311;SDS011;63906;55.686;37.532;2023-06-14T16:39:56;3.08;;;1.80;;
75311;SDS011;63906;55.686;37.532;2023-06-14T16:44:58;1.80;;;1.23;;
75311;SDS011;63906;55.686;37.532;2023-06-14T16:50:00;1.83;;;1.33;;
75311;SDS011;63906;55.686;37.532;2023-06-14T16:55:01;3.60;;;1.77;;
75311;SDS011;63906;55.686;37.532;2023-06-14T17:00:01;2.75;;;1.70;;
75311;SDS011;63906;55.686;37.532;2023-06-14T17:05:05;2.25;;;1.25;;
75311;SDS011;63906;55.686;37.532;2023-06-14T17:10:09;2.85;;;1.80;;
75311;SDS011;63906;55.686;37.532;2023-06-14T17:15:10;2.25;;;1.30;;
75311;SDS011;63906;55.686;37.532;2023-06-14T17:20:13;2.55;;;1.30;;
75311;SDS011;63906;55.686;37.532;2023-06-14T17:25:14;2.58;;;1.63;;
75311;SDS011;63906;55.686;37.532;2023-06-14T17:30:15;1.55;;;1.15;;
75311;SDS011;63906;55.686;37.532;2023-06-14T17:35:15;2.10;;;1.10;;
75311;SDS011;63906;55.686;37.532;2023-06-14T17:40:18;3.55;;;1.38;;
75311;SDS011;63906;55.686;37.532;2023-06-14T17:45:18;2.05;;;1.20;;
75311;SDS011;63906;55.686;37.532;2023-06-14T17:50:19;2.00;;;1.30;;
75311;SDS011;63906;55.686;37.532;2023-06-14T17:55:21;2.40;;;1.70;;
75311;SDS011;63906;55.686;37.532;2023-06-14T18:00:22;2.22;;;1.50;;
75311;SDS011;63906;55.686;37.532;2023-06-14T18:05:23;2.00;;;1.35;;
75311;SDS011;63906;55.686;37.532;2023-06-14T18:10:25;2.33;;;1.40;;
75311;SDS011;63906;55.686;37.532;2023-06-14T18:15:26;2.53;;;1.42;;
75311;SDS011;63906;55.686;37.532;2023-06-14T18:20:27;1.77;;;1.20;;
75311;SDS011;63906;55.686;37.532;2023-06-14T18:25:29;2.72;;;1.55;;
75311;SDS011;63906;55.686;37.532;2023-06-14T18:30:29;2.97;;;1.83;;
75311;SDS011;63906;55.686;37.532;2023-06-14T18:35:32;2.22;;;1.70;;
75311;SDS011;63906;55.686;37.532;2023-06-14T18:40:33;2.03;;;1.40;;
75311;SDS011;63906;55.686;37.532;2023-06-14T18:45:36;1.73;;;1.30;;
75311;SDS011;63906;55.686;37.532;2023-06-14T18:50:37;2.25;;;1.33;;
75311;SDS011;63906;55.686;37.532;2023-06-14T18:55:38;1.48;;;0.82;;
75311;SDS011;63906;55.686;37.532;2023-06-14T19:00:38;3.40;;;1.20;;
75311;SDS011;63906;55.686;37.532;2023-06-14T19:05:39;1.85;;;1.23;;
75311;SDS011;63906;55.686;37.532;2023-06-14T19:10:40;1.17;;;0.70;;
75311;SDS011;63906;55.686;37.532;2023-06-14T19:15:40;1.23;;;0.80;;
75311;SDS011;63906;55.686;37.532;2023-06-14T19:20:41;1.20;;;0.80;;
75311;SDS011;63906;55.686;37.532;2023-06-14T19:25:42;1.35;;;0.85;;
75311;SDS011;63906;55.686;37.532;2023-06-14T19:30:42;1.88;;;0.80;;
75311;SDS011;63906;55.686;37.532;2023-06-14T19:35:43;1.65;;;0.82;;
75311;SDS011;63906;55.686;37.532;2023-06-14T19:40:44;0.82;;;0.60;;
75311;SDS011;63906;55.686;37.532;2023-06-14T19:45:45;0.80;;;0.50;;
75311;SDS011;63906;55.686;37.532;2023-06-14T19:50:45;1.27;;;0.68;;
75311;SDS011;63906;55.686;37.532;2023-06-14T19:55:46;0.80;;;0.60;;
75311;SDS011;63906;55.686;37.532;2023-06-14T20:00:48;1.23;;;0.90;;
75311;SDS011;63906;55.686;37.532;2023-06-14T20:05:49;0.98;;;0.57;;
75311;SDS011;63906;55.686;37.532;2023-06-14T20:10:51;1.58;;;0.70;;
75311;SDS011;63906;55.686;37.532;2023-06-14T20:15:52;1.35;;;0.80;;
75311;SDS011;63906;55.686;37.532;2023-06-14T20:20:55;1.25;;;1.00;;
75311;SDS011;63906;55.686;37.532;2023-06-14T20:25:55;1.00;;;0.80;;
75311;SDS011;63906;55.686;37.532;2023-06-14T20:30:56;2.10;;;1.00;;
75311;SDS011;63906;55.686;37.532;2023-06-14T20:35:56;1.40;;;1.20;;
75311;SDS011;63906;55.686;37.532;2023-06-14T20:40:57;1.27;;;0.90;;
75311;SDS011;63906;55.686;37.532;2023-06-14T20:45:57;1.83;;;0.82;;
75311;SDS011;63906;55.686;37.532;2023-06-14T20:50:58;2.30;;;1.67;;
75311;SDS011;63906;55.686;37.532;2023-06-14T20:55:58;2.85;;;1.45;;
75311;SDS011;63906;55.686;37.532;2023-06-14T21:00:59;3.85;;;1.63;;
75311;SDS011;63906;55.686;37.532;2023-06-14T21:06:00;2.60;;;1.70;;
75311;SDS011;63906;55.686;37.532;2023-06-14T21:11:00;2.83;;;1.73;;
75311;SDS011;63906;55.686;37.532;2023-06-14T21:16:01;3.60;;;1.58;;
75311;SDS011;63906;55.686;37.532;2023-06-14T21:21:01;2.10;;;1.67;;
75311;SDS011;63906;55.686;37.532;2023-06-14T21:26:02;2.60;;;1.55;;
75311;SDS011;63906;55.686;37.532;2023-06-14T21:31:06;2.58;;;1.40;;
75311;SDS011;63906;55.686;37.532;2023-06-14T21:36:07;3.45;;;1.40;;
75311;SDS011;63906;55.686;37.532;2023-06-14T21:41:08;1.50;;;1.15;;
75311;SDS011;63906;55.686;37.532;2023-06-14T21:46:09;1.85;;;1.20;;
75311;SDS011;63906;55.686;37.532;2023-06-14T21:51:10;1.63;;;1.10;;
75311;SDS011;63906;55.686;37.532;2023-06-14T21:56:10;2.47;;;1.30;;
75311;SDS011;63906;55.686;37.532;2023-06-14T22:01:11;2.08;;;1.45;;
75311;SDS011;63906;55.686;37.532;2023-06-14T22:06:12;1.77;;;1.10;;
75311;SDS011;63906;55.686;37.532;2023-06-14T22:11:12;1.75;;;1.40;;
75311;SDS011;63906;55.686;37.532;2023-06-14T22:16:13;1.83;;;1.25;;
75311;SDS011;63906;55.686;37.532;2023-06-14T22:21:13;2.47;;;1.02;;
75311;SDS011;63906;55.686;37.532;2023-06-14T22:26:15;2.33;;;1.33;;
75311;SDS011;63906;55.686;37.532;2023-06-14T22:31:16;1.58;;;1.25;;
75311;SDS011;63906;55.686;37.532;2023-06-14T22:36:17;1.65;;;1.20;;
75311;SDS011;63906;55.686;37.532;2023-06-14T22:41:17;2.22;;;1.23;;
75311;SDS011;63906;55.686;37.532;2023-06-14T22:46:18;3.42;;;1.83;;
75311;SDS011;63906;55.686;37.532;2023-06-14T22:51:23;2.33;;;1.63;;
75311;SDS011;63906;55.686;37.532;2023-06-14T22:56:24;2.00;;;1.40;;
75311;SDS011;63906;55.686;37.532;2023-06-14T23:01:25;3.40;;;1.42;;
75311;SDS011;63906;55.686;37.532;2023-06-14T23:16:28;2.30;;;1.40;;
75311;SDS011;63906;55.686;37.532;2023-06-14T23:21:31;2.15;;;1.17;;
75311;SDS011;63906;55.686;37.532;2023-06-14T23:26:32;2.80;;;1.42;;
75311;SDS011;63906;55.686;37.532;2023-06-14T23:31:33;3.95;;;1.98;;
75311;SDS011;63906;55.686;37.532;2023-06-14T23:36:34;3.60;;;1.35;;
75311;SDS011;63906;55.686;37.532;2023-06-14T23:41:35;4.13;;;1.50;;
75311;SDS011;63906;55.686;37.532;2023-06-14T23:46:35;3.15;;;1.75;;
75311;SDS011;63906;55.686;37.532;2023-06-14T23:51:36;2.30;;;1.50;;
75311;SDS011;63906;55.686;37.532;2023-06-14T23:56:38;2.50;;;1.60;;
